Aviation Digital Data Service (ADDS)

Output produced by METARs form (0355 UTC 26 June 2019)
found at http://www.aviationweather.gov/metar/data/
 
Forecast for: LEVD (VALLADOLID(MIL/C, ES)
Text: TAF LEVD 252300Z 2600/2624 VRB05KT CAVOK TX33/2616Z TN15/2605Z
Forecast period: 0000 to 0800 UTC 26 June 2019
Forecast type: FROM: standard forecast or significant change
Winds: variable direction winds at 6 MPH (5 knots; 2.6 m/s)
Visibility: 6 or more miles 10+ km)
Ceiling: unknown
Clouds: missing
Weather: no significant weather forecast for this period
Text: BECMG 2608/2610 18012KT
Forecast period: 0800 to 1800 UTC 26 June 2019
Forecast type: BECOMING: Conditions expected to become as follows by 1000 UTC 26 June 2019
Winds: from the S (180 degrees) at 14 MPH (12 knots; 6.2 m/s)
Visibility: 6 or more miles 10+ km)
Ceiling: unknown
Clouds: missing
Weather: no significant weather forecast for this period
Text: BECMG 2618/2621 VRB05KT
Forecast period: 1800 UTC 26 June 2019 to 0000 UTC 27 June 2019
Forecast type: BECOMING: Conditions expected to become as follows by 2100 UTC 26 June 2019
Winds: variable direction winds at 6 MPH (5 knots; 2.6 m/s)
Visibility: 6 or more miles 10+ km)
Ceiling: unknown
Clouds: missing
Weather: no significant weather forecast for this period